sensor_id;sensor_type;location;lat;lon;timestamp;temperature;humidity
67799;SHT30;54596;43.216;27.904;2022-07-05T00:00:50;20.63;74.33
67799;SHT30;54596;43.216;27.904;2022-07-05T00:03:16;20.63;74.03
67799;SHT30;54596;43.216;27.904;2022-07-05T00:05:41;20.57;74.13
67799;SHT30;54596;43.216;27.904;2022-07-05T00:08:07;20.55;73.72
67799;SHT30;54596;43.216;27.904;2022-07-05T00:10:34;20.55;73.26
67799;SHT30;54596;43.216;27.904;2022-07-05T00:12:59;20.52;73.06
67799;SHT30;54596;43.216;27.904;2022-07-05T00:15:25;20.45;72.82
67799;SHT30;54596;43.216;27.904;2022-07-05T00:17:50;20.45;72.65
67799;SHT30;54596;43.216;27.904;2022-07-05T00:20:16;20.44;72.85
67799;SHT30;54596;43.216;27.904;2022-07-05T00:22:42;20.45;72.52
67799;SHT30;54596;43.216;27.904;2022-07-05T00:25:08;20.40;72.76
67799;SHT30;54596;43.216;27.904;2022-07-05T00:27:33;20.39;72.30
67799;SHT30;54596;43.216;27.904;2022-07-05T00:29:59;20.41;72.41
67799;SHT30;54596;43.216;27.904;2022-07-05T00:32:24;20.37;72.52
67799;SHT30;54596;43.216;27.904;2022-07-05T00:34:50;20.37;72.51
67799;SHT30;54596;43.216;27.904;2022-07-05T00:37:16;20.34;72.61
67799;SHT30;54596;43.216;27.904;2022-07-05T00:39:42;20.33;72.70
67799;SHT30;54596;43.216;27.904;2022-07-05T00:42:08;20.30;72.98
67799;SHT30;54596;43.216;27.904;2022-07-05T00:44:36;20.26;73.07
67799;SHT30;54596;43.216;27.904;2022-07-05T00:47:04;20.26;72.91
67799;SHT30;54596;43.216;27.904;2022-07-05T00:49:30;20.23;72.98
67799;SHT30;54596;43.216;27.904;2022-07-05T00:51:57;20.25;72.75
67799;SHT30;54596;43.216;27.904;2022-07-05T00:54:23;20.20;73.02
67799;SHT30;54596;43.216;27.904;2022-07-05T00:56:49;20.19;72.73
67799;SHT30;54596;43.216;27.904;2022-07-05T00:59:14;20.16;72.91
67799;SHT30;54596;43.216;27.904;2022-07-05T01:01:40;20.12;73.12
67799;SHT30;54596;43.216;27.904;2022-07-05T01:04:05;20.17;72.87
67799;SHT30;54596;43.216;27.904;2022-07-05T01:06:31;20.16;73.00
67799;SHT30;54596;43.216;27.904;2022-07-05T01:08:58;20.16;72.92
67799;SHT30;54596;43.216;27.904;2022-07-05T01:11:24;20.15;73.11
67799;SHT30;54596;43.216;27.904;2022-07-05T01:13:49;20.15;73.07
67799;SHT30;54596;43.216;27.904;2022-07-05T01:16:15;20.13;73.53
67799;SHT30;54596;43.216;27.904;2022-07-05T01:18:41;20.09;73.49
67799;SHT30;54596;43.216;27.904;2022-07-05T01:21:12;20.12;73.41
67799;SHT30;54596;43.216;27.904;2022-07-05T01:23:39;20.17;73.08
67799;SHT30;54596;43.216;27.904;2022-07-05T01:26:06;20.22;73.37
67799;SHT30;54596;43.216;27.904;2022-07-05T01:28:32;20.16;73.55
67799;SHT30;54596;43.216;27.904;2022-07-05T01:31:00;20.16;73.54
67799;SHT30;54596;43.216;27.904;2022-07-05T01:33:28;20.16;73.74
67799;SHT30;54596;43.216;27.904;2022-07-05T01:35:54;20.09;74.02
67799;SHT30;54596;43.216;27.904;2022-07-05T01:38:20;20.09;73.95
67799;SHT30;54596;43.216;27.904;2022-07-05T01:40:45;20.05;74.10
67799;SHT30;54596;43.216;27.904;2022-07-05T01:43:12;20.02;74.56
67799;SHT30;54596;43.216;27.904;2022-07-05T01:45:37;19.99;74.49
67799;SHT30;54596;43.216;27.904;2022-07-05T01:48:09;19.99;74.59
67799;SHT30;54596;43.216;27.904;2022-07-05T01:50:52;19.98;74.83
67799;SHT30;54596;43.216;27.904;2022-07-05T01:53:21;19.93;75.43
67799;SHT30;54596;43.216;27.904;2022-07-05T01:55:47;19.86;75.96
67799;SHT30;54596;43.216;27.904;2022-07-05T01:58:13;19.83;75.78
67799;SHT30;54596;43.216;27.904;2022-07-05T02:00:47;19.81;76.16
67799;SHT30;54596;43.216;27.904;2022-07-05T02:03:14;19.83;76.08
67799;SHT30;54596;43.216;27.904;2022-07-05T02:05:40;19.83;75.94
67799;SHT30;54596;43.216;27.904;2022-07-05T02:08:07;19.79;76.16
67799;SHT30;54596;43.216;27.904;2022-07-05T02:10:34;19.77;75.99
67799;SHT30;54596;43.216;27.904;2022-07-05T02:13:00;19.74;75.97
67799;SHT30;54596;43.216;27.904;2022-07-05T02:15:25;19.72;75.78
67799;SHT30;54596;43.216;27.904;2022-07-05T02:17:51;19.68;75.93
67799;SHT30;54596;43.216;27.904;2022-07-05T02:20:16;19.68;75.83
67799;SHT30;54596;43.216;27.904;2022-07-05T02:22:42;19.68;75.83
67799;SHT30;54596;43.216;27.904;2022-07-05T02:25:08;19.65;75.70
67799;SHT30;54596;43.216;27.904;2022-07-05T02:27:33;19.61;76.25
67799;SHT30;54596;43.216;27.904;2022-07-05T02:29:59;19.61;76.65
67799;SHT30;54596;43.216;27.904;2022-07-05T02:32:25;19.57;77.06
67799;SHT30;54596;43.216;27.904;2022-07-05T02:34:51;19.60;77.42
67799;SHT30;54596;43.216;27.904;2022-07-05T02:37:16;19.55;77.88
67799;SHT30;54596;43.216;27.904;2022-07-05T02:39:41;19.65;78.08
67799;SHT30;54596;43.216;27.904;2022-07-05T02:42:07;19.64;78.36
67799;SHT30;54596;43.216;27.904;2022-07-05T02:44:32;19.67;77.72
67799;SHT30;54596;43.216;27.904;2022-07-05T02:46:58;19.61;78.25
67799;SHT30;54596;43.216;27.904;2022-07-05T02:49:23;19.65;77.58
67799;SHT30;54596;43.216;27.904;2022-07-05T02:51:49;19.65;76.84
67799;SHT30;54596;43.216;27.904;2022-07-05T02:54:14;19.70;76.91
67799;SHT30;54596;43.216;27.904;2022-07-05T02:56:40;19.74;76.67
67799;SHT30;54596;43.216;27.904;2022-07-05T02:59:05;19.71;76.61
67799;SHT30;54596;43.216;27.904;2022-07-05T03:01:31;19.71;76.62
67799;SHT30;54596;43.216;27.904;2022-07-05T03:03:56;19.74;76.60
67799;SHT30;54596;43.216;27.904;2022-07-05T03:06:24;19.79;76.40
67799;SHT30;54596;43.216;27.904;2022-07-05T03:08:49;19.86;76.00
67799;SHT30;54596;43.216;27.904;2022-07-05T03:11:15;19.92;75.62
67799;SHT30;54596;43.216;27.904;2022-07-05T03:13:40;19.95;75.40
67799;SHT30;54596;43.216;27.904;2022-07-05T03:16:06;20.02;75.05
67799;SHT30;54596;43.216;27.904;2022-07-05T03:18:32;20.09;74.69
67799;SHT30;54596;43.216;27.904;2022-07-05T03:20:57;20.13;74.31
67799;SHT30;54596;43.216;27.904;2022-07-05T03:23:23;20.16;74.39
67799;SHT30;54596;43.216;27.904;2022-07-05T03:25:48;20.22;73.65
67799;SHT30;54596;43.216;27.904;2022-07-05T03:28:13;20.25;73.20
67799;SHT30;54596;43.216;27.904;2022-07-05T03:30:39;20.32;73.00
67799;SHT30;54596;43.216;27.904;2022-07-05T03:33:04;20.33;73.17
67799;SHT30;54596;43.216;27.904;2022-07-05T03:35:30;20.39;73.19
67799;SHT30;54596;43.216;27.904;2022-07-05T03:37:55;20.48;73.22
67799;SHT30;54596;43.216;27.904;2022-07-05T03:40:21;20.54;73.02
67799;SHT30;54596;43.216;27.904;2022-07-05T03:42:47;20.64;72.88
67799;SHT30;54596;43.216;27.904;2022-07-05T03:45:12;20.75;72.18
67799;SHT30;54596;43.216;27.904;2022-07-05T03:47:38;20.81;71.77
67799;SHT30;54596;43.216;27.904;2022-07-05T03:50:04;20.84;71.88
67799;SHT30;54596;43.216;27.904;2022-07-05T03:52:29;20.85;71.89
67799;SHT30;54596;43.216;27.904;2022-07-05T03:54:55;20.96;71.71
67799;SHT30;54596;43.216;27.904;2022-07-05T03:57:21;20.96;71.98
67799;SHT30;54596;43.216;27.904;2022-07-05T03:59:46;21.02;72.07
67799;SHT30;54596;43.216;27.904;2022-07-05T04:02:12;21.07;71.88
67799;SHT30;54596;43.216;27.904;2022-07-05T04:04:37;21.19;71.51
67799;SHT30;54596;43.216;27.904;2022-07-05T04:07:03;21.23;71.18
67799;SHT30;54596;43.216;27.904;2022-07-05T04:09:29;21.26;70.64
67799;SHT30;54596;43.216;27.904;2022-07-05T04:11:54;21.27;70.40
67799;SHT30;54596;43.216;27.904;2022-07-05T04:14:20;21.39;70.16
67799;SHT30;54596;43.216;27.904;2022-07-05T04:16:45;21.46;70.17
67799;SHT30;54596;43.216;27.904;2022-07-05T04:19:11;21.54;69.80
67799;SHT30;54596;43.216;27.904;2022-07-05T04:21:36;21.57;69.54
67799;SHT30;54596;43.216;27.904;2022-07-05T04:24:02;21.61;69.57
67799;SHT30;54596;43.216;27.904;2022-07-05T04:26:27;21.65;69.27
67799;SHT30;54596;43.216;27.904;2022-07-05T04:28:53;21.77;68.96
67799;SHT30;54596;43.216;27.904;2022-07-05T04:31:18;21.81;68.64
67799;SHT30;54596;43.216;27.904;2022-07-05T04:33:44;21.91;68.53
67799;SHT30;54596;43.216;27.904;2022-07-05T04:36:09;22.08;67.68
67799;SHT30;54596;43.216;27.904;2022-07-05T04:38:35;22.20;67.35
67799;SHT30;54596;43.216;27.904;2022-07-05T04:41:00;22.27;67.11
67799;SHT30;54596;43.216;27.904;2022-07-05T04:43:26;22.39;66.39
67799;SHT30;54596;43.216;27.904;2022-07-05T04:45:51;22.43;66.52
67799;SHT30;54596;43.216;27.904;2022-07-05T04:48:17;22.54;66.26
67799;SHT30;54596;43.216;27.904;2022-07-05T04:50:42;22.61;66.23
67799;SHT30;54596;43.216;27.904;2022-07-05T04:53:08;22.73;66.14
67799;SHT30;54596;43.216;27.904;2022-07-05T04:55:33;22.82;66.14
67799;SHT30;54596;43.216;27.904;2022-07-05T04:57:59;22.94;65.96
67799;SHT30;54596;43.216;27.904;2022-07-05T05:00:24;23.10;65.44
67799;SHT30;54596;43.216;27.904;2022-07-05T05:02:50;23.20;65.35
67799;SHT30;54596;43.216;27.904;2022-07-05T05:05:15;23.33;65.21
67799;SHT30;54596;43.216;27.904;2022-07-05T05:07:44;23.46;64.58
67799;SHT30;54596;43.216;27.904;2022-07-05T05:10:11;23.65;64.46
67799;SHT30;54596;43.216;27.904;2022-07-05T05:12:38;23.85;64.33
67799;SHT30;54596;43.216;27.904;2022-07-05T05:15:04;24.05;63.49
67799;SHT30;54596;43.216;27.904;2022-07-05T05:17:37;24.26;63.05
67799;SHT30;54596;43.216;27.904;2022-07-05T05:20:05;24.44;62.58
67799;SHT30;54596;43.216;27.904;2022-07-05T05:22:31;24.71;61.74
67799;SHT30;54596;43.216;27.904;2022-07-05T05:24:56;25.10;60.49
67799;SHT30;54596;43.216;27.904;2022-07-05T05:27:22;25.78;58.56
67799;SHT30;54596;43.216;27.904;2022-07-05T05:29:47;26.69;55.93
67799;SHT30;54596;43.216;27.904;2022-07-05T05:32:13;28.14;52.83
67799;SHT30;54596;43.216;27.904;2022-07-05T05:34:38;29.88;49.26
67799;SHT30;54596;43.216;27.904;2022-07-05T05:37:04;31.31;45.07
67799;SHT30;54596;43.216;27.904;2022-07-05T05:39:29;32.76;42.72
67799;SHT30;54596;43.216;27.904;2022-07-05T05:41:55;33.75;40.18
67799;SHT30;54596;43.216;27.904;2022-07-05T05:44:20;34.88;37.50
67799;SHT30;54596;43.216;27.904;2022-07-05T05:46:46;35.61;37.18
67799;SHT30;54596;43.216;27.904;2022-07-05T05:49:11;35.72;36.87
67799;SHT30;54596;43.216;27.904;2022-07-05T05:51:37;36.15;36.68
67799;SHT30;54596;43.216;27.904;2022-07-05T05:54:02;37.29;35.38
67799;SHT30;54596;43.216;27.904;2022-07-05T05:56:28;37.57;34.43
67799;SHT30;54596;43.216;27.904;2022-07-05T05:58:53;38.09;33.75
67799;SHT30;54596;43.216;27.904;2022-07-05T06:01:19;38.44;32.97
67799;SHT30;54596;43.216;27.904;2022-07-05T06:03:44;38.47;33.17
67799;SHT30;54596;43.216;27.904;2022-07-05T06:06:10;38.68;33.15
67799;SHT30;54596;43.216;27.904;2022-07-05T06:08:35;39.03;32.60
67799;SHT30;54596;43.216;27.904;2022-07-05T06:11:01;39.25;32.48
67799;SHT30;54596;43.216;27.904;2022-07-05T06:13:29;39.57;32.31
67799;SHT30;54596;43.216;27.904;2022-07-05T06:15:55;39.61;31.90
67799;SHT30;54596;43.216;27.904;2022-07-05T06:18:21;38.74;31.65
67799;SHT30;54596;43.216;27.904;2022-07-05T06:20:47;38.74;31.59
67799;SHT30;54596;43.216;27.904;2022-07-05T06:23:13;38.88;31.57
67799;SHT30;54596;43.216;27.904;2022-07-05T06:25:38;39.08;31.26
67799;SHT30;54596;43.216;27.904;2022-07-05T06:28:06;39.50;30.60
67799;SHT30;54596;43.216;27.904;2022-07-05T06:30:34;39.46;31.43
67799;SHT30;54596;43.216;27.904;2022-07-05T06:33:01;40.09;30.34
67799;SHT30;54596;43.216;27.904;2022-07-05T06:35:27;40.67;29.35
67799;SHT30;54596;43.216;27.904;2022-07-05T06:37:54;40.40;28.83
67799;SHT30;54596;43.216;27.904;2022-07-05T06:40:22;41.64;26.96
67799;SHT30;54596;43.216;27.904;2022-07-05T06:42:52;42.01;27.72
67799;SHT30;54596;43.216;27.904;2022-07-05T06:45:18;42.26;27.06
67799;SHT30;54596;43.216;27.904;2022-07-05T06:47:44;42.71;23.93
67799;SHT30;54596;43.216;27.904;2022-07-05T06:50:09;42.54;23.77
67799;SHT30;54596;43.216;27.904;2022-07-05T06:52:38;42.04;22.97
67799;SHT30;54596;43.216;27.904;2022-07-05T06:55:05;41.25;22.99
67799;SHT30;54596;43.216;27.904;2022-07-05T06:57:30;40.20;24.63
67799;SHT30;54596;43.216;27.904;2022-07-05T06:59:56;39.80;23.97
67799;SHT30;54596;43.216;27.904;2022-07-05T07:02:22;40.68;24.73
67799;SHT30;54596;43.216;27.904;2022-07-05T07:04:48;40.02;22.79
67799;SHT30;54596;43.216;27.904;2022-07-05T07:07:14;40.51;23.11
67799;SHT30;54596;43.216;27.904;2022-07-05T07:09:59;40.77;24.19
67799;SHT30;54596;43.216;27.904;2022-07-05T07:12:24;40.81;24.21
67799;SHT30;54596;43.216;27.904;2022-07-05T07:14:50;40.59;24.23
67799;SHT30;54596;43.216;27.904;2022-07-05T07:17:16;40.15;22.39
67799;SHT30;54596;43.216;27.904;2022-07-05T07:19:42;41.30;22.86
67799;SHT30;54596;43.216;27.904;2022-07-05T07:22:07;41.73;20.82
67799;SHT30;54596;43.216;27.904;2022-07-05T07:24:33;42.68;21.53
67799;SHT30;54596;43.216;27.904;2022-07-05T07:26:58;41.76;21.83
67799;SHT30;54596;43.216;27.904;2022-07-05T07:29:32;41.52;23.06
67799;SHT30;54596;43.216;27.904;2022-07-05T07:31:59;40.77;23.53
67799;SHT30;54596;43.216;27.904;2022-07-05T07:34:25;42.09;22.17
67799;SHT30;54596;43.216;27.904;2022-07-05T07:36:52;42.11;21.53
67799;SHT30;54596;43.216;27.904;2022-07-05T07:39:18;42.15;19.24
67799;SHT30;54596;43.216;27.904;2022-07-05T07:41:44;41.22;21.56
67799;SHT30;54596;43.216;27.904;2022-07-05T07:44:09;42.59;21.68
67799;SHT30;54596;43.216;27.904;2022-07-05T07:46:35;42.40;19.99
67799;SHT30;54596;43.216;27.904;2022-07-05T07:49:02;41.73;22.25
67799;SHT30;54596;43.216;27.904;2022-07-05T07:51:29;41.63;21.90
67799;SHT30;54596;43.216;27.904;2022-07-05T07:53:54;41.33;23.18
67799;SHT30;54596;43.216;27.904;2022-07-05T07:56:20;41.88;22.86
67799;SHT30;54596;43.216;27.904;2022-07-05T07:58:46;42.05;23.15
67799;SHT30;54596;43.216;27.904;2022-07-05T08:01:12;42.44;22.08
67799;SHT30;54596;43.216;27.904;2022-07-05T08:03:39;42.33;22.38
67799;SHT30;54596;43.216;27.904;2022-07-05T08:06:05;41.47;22.54
67799;SHT30;54596;43.216;27.904;2022-07-05T08:08:31;41.69;22.41
67799;SHT30;54596;43.216;27.904;2022-07-05T08:10:56;39.16;22.88
67799;SHT30;54596;43.216;27.904;2022-07-05T08:13:21;39.35;23.48
67799;SHT30;54596;43.216;27.904;2022-07-05T08:15:47;37.68;24.24
67799;SHT30;54596;43.216;27.904;2022-07-05T08:18:12;36.51;28.48
67799;SHT30;54596;43.216;27.904;2022-07-05T08:20:56;36.07;27.34
67799;SHT30;54596;43.216;27.904;2022-07-05T08:23:40;35.88;28.59
67799;SHT30;54596;43.216;27.904;2022-07-05T08:26:06;35.38;26.91
67799;SHT30;54596;43.216;27.904;2022-07-05T08:28:31;34.54;28.76
67799;SHT30;54596;43.216;27.904;2022-07-05T08:30:57;34.47;29.07
67799;SHT30;54596;43.216;27.904;2022-07-05T08:33:22;34.26;29.50
67799;SHT30;54596;43.216;27.904;2022-07-05T08:35:49;33.96;29.78
67799;SHT30;54596;43.216;27.904;2022-07-05T08:38:15;33.47;32.14
67799;SHT30;54596;43.216;27.904;2022-07-05T08:40:46;32.83;32.40
67799;SHT30;54596;43.216;27.904;2022-07-05T08:43:13;33.24;30.52
67799;SHT30;54596;43.216;27.904;2022-07-05T08:45:45;32.87;33.03
67799;SHT30;54596;43.216;27.904;2022-07-05T08:48:11;32.20;34.08
67799;SHT30;54596;43.216;27.904;2022-07-05T08:50:39;32.72;33.33
67799;SHT30;54596;43.216;27.904;2022-07-05T08:53:06;32.57;34.32
67799;SHT30;54596;43.216;27.904;2022-07-05T08:55:32;31.88;34.96
67799;SHT30;54596;43.216;27.904;2022-07-05T08:57:58;31.28;38.57
67799;SHT30;54596;43.216;27.904;2022-07-05T09:00:25;31.23;37.85
67799;SHT30;54596;43.216;27.904;2022-07-05T09:02:50;30.80;38.45
67799;SHT30;54596;43.216;27.904;2022-07-05T09:05:18;30.42;35.40
67799;SHT30;54596;43.216;27.904;2022-07-05T09:08:13;30.42;38.87
67799;SHT30;54596;43.216;27.904;2022-07-05T09:10:42;30.00;38.04
67799;SHT30;54596;43.216;27.904;2022-07-05T09:13:08;30.23;38.30
67799;SHT30;54596;43.216;27.904;2022-07-05T09:15:34;29.72;39.63
67799;SHT30;54596;43.216;27.904;2022-07-05T09:17:59;29.68;38.45
67799;SHT30;54596;43.216;27.904;2022-07-05T09:20:27;29.73;39.94
67799;SHT30;54596;43.216;27.904;2022-07-05T09:22:54;29.47;41.32
67799;SHT30;54596;43.216;27.904;2022-07-05T09:25:31;29.45;41.95
67799;SHT30;54596;43.216;27.904;2022-07-05T09:30:28;28.98;41.10
67799;SHT30;54596;43.216;27.904;2022-07-05T09:35:33;29.02;44.60
67799;SHT30;54596;43.216;27.904;2022-07-05T09:37:59;28.83;40.46
67799;SHT30;54596;43.216;27.904;2022-07-05T09:40:24;28.80;43.35
67799;SHT30;54596;43.216;27.904;2022-07-05T09:42:50;28.68;42.63
67799;SHT30;54596;43.216;27.904;2022-07-05T09:45:23;28.66;45.90
67799;SHT30;54596;43.216;27.904;2022-07-05T09:47:49;28.71;43.82
67799;SHT30;54596;43.216;27.904;2022-07-05T09:50:15;28.38;45.52
67799;SHT30;54596;43.216;27.904;2022-07-05T09:52:57;28.31;45.74
67799;SHT30;54596;43.216;27.904;2022-07-05T09:55:23;28.18;44.61
67799;SHT30;54596;43.216;27.904;2022-07-05T09:57:48;28.38;45.27
67799;SHT30;54596;43.216;27.904;2022-07-05T10:00:20;28.40;41.76
67799;SHT30;54596;43.216;27.904;2022-07-05T10:02:50;28.49;44.15
67799;SHT30;54596;43.216;27.904;2022-07-05T10:05:22;28.20;46.61
67799;SHT30;54596;43.216;27.904;2022-07-05T10:07:53;28.30;48.08
67799;SHT30;54596;43.216;27.904;2022-07-05T10:10:23;28.18;47.19
67799;SHT30;54596;43.216;27.904;2022-07-05T10:12:55;28.28;48.26
67799;SHT30;54596;43.216;27.904;2022-07-05T10:15:30;28.02;48.22
67799;SHT30;54596;43.216;27.904;2022-07-05T10:18:09;28.02;49.09
67799;SHT30;54596;43.216;27.904;2022-07-05T10:23:18;27.92;48.07
67799;SHT30;54596;43.216;27.904;2022-07-05T10:25:46;27.85;51.15
67799;SHT30;54596;43.216;27.904;2022-07-05T10:28:15;27.73;47.15
67799;SHT30;54596;43.216;27.904;2022-07-05T10:30:41;27.90;46.88
67799;SHT30;54596;43.216;27.904;2022-07-05T10:33:10;28.06;48.59
67799;SHT30;54596;43.216;27.904;2022-07-05T10:35:36;27.95;45.57
67799;SHT30;54596;43.216;27.904;2022-07-05T10:38:03;28.02;45.29
67799;SHT30;54596;43.216;27.904;2022-07-05T10:40:32;27.82;43.24
67799;SHT30;54596;43.216;27.904;2022-07-05T10:43:00;27.73;48.13
67799;SHT30;54596;43.216;27.904;2022-07-05T10:45:31;27.68;46.77
67799;SHT30;54596;43.216;27.904;2022-07-05T10:48:24;27.69;43.37
67799;SHT30;54596;43.216;27.904;2022-07-05T10:51:00;27.66;44.90
67799;SHT30;54596;43.216;27.904;2022-07-05T10:58:48;27.82;42.83
67799;SHT30;54596;43.216;27.904;2022-07-05T11:03:52;27.69;50.64
67799;SHT30;54596;43.216;27.904;2022-07-05T11:06:25;27.62;51.01
67799;SHT30;54596;43.216;27.904;2022-07-05T11:11:36;27.75;50.25
67799;SHT30;54596;43.216;27.904;2022-07-05T11:14:04;27.62;50.74
67799;SHT30;54596;43.216;27.904;2022-07-05T11:16:34;27.35;51.37
67799;SHT30;54596;43.216;27.904;2022-07-05T11:19:12;27.38;55.27
67799;SHT30;54596;43.216;27.904;2022-07-05T11:21:39;27.55;54.27
67799;SHT30;54596;43.216;27.904;2022-07-05T11:26:44;27.48;54.59
67799;SHT30;54596;43.216;27.904;2022-07-05T11:32:05;27.44;55.95
67799;SHT30;54596;43.216;27.904;2022-07-05T11:34:34;27.31;54.91
67799;SHT30;54596;43.216;27.904;2022-07-05T11:39:45;27.27;56.05
67799;SHT30;54596;43.216;27.904;2022-07-05T11:42:19;27.30;54.74
67799;SHT30;54596;43.216;27.904;2022-07-05T11:44:49;27.22;56.41
67799;SHT30;54596;43.216;27.904;2022-07-05T11:47:16;27.24;55.68
67799;SHT30;54596;43.216;27.904;2022-07-05T11:49:53;27.31;55.58
67799;SHT30;54596;43.216;27.904;2022-07-05T11:52:33;27.30;55.31
67799;SHT30;54596;43.216;27.904;2022-07-05T11:55:01;27.38;53.45
67799;SHT30;54596;43.216;27.904;2022-07-05T11:57:27;27.18;53.55
67799;SHT30;54596;43.216;27.904;2022-07-05T11:59:53;27.23;53.90
67799;SHT30;54596;43.216;27.904;2022-07-05T12:02:19;27.27;52.30
67799;SHT30;54596;43.216;27.904;2022-07-05T12:04:49;27.35;51.37
67799;SHT30;54596;43.216;27.904;2022-07-05T12:09:51;27.23;52.41
67799;SHT30;54596;43.216;27.904;2022-07-05T12:12:36;27.09;53.69
67799;SHT30;54596;43.216;27.904;2022-07-05T12:15:15;27.23;51.95
67799;SHT30;54596;43.216;27.904;2022-07-05T12:17:42;27.17;53.45
67799;SHT30;54596;43.216;27.904;2022-07-05T12:20:10;27.06;53.44
67799;SHT30;54596;43.216;27.904;2022-07-05T12:22:40;27.00;53.17
67799;SHT30;54596;43.216;27.904;2022-07-05T12:25:08;27.11;53.68
67799;SHT30;54596;43.216;27.904;2022-07-05T12:27:37;26.98;54.80
67799;SHT30;54596;43.216;27.904;2022-07-05T12:30:04;27.06;53.34
67799;SHT30;54596;43.216;27.904;2022-07-05T12:32:30;27.06;52.12
67799;SHT30;54596;43.216;27.904;2022-07-05T12:34:56;26.99;53.97
67799;SHT30;54596;43.216;27.904;2022-07-05T12:37:26;27.03;54.79
67799;SHT30;54596;43.216;27.904;2022-07-05T12:40:06;27.17;54.05
67799;SHT30;54596;43.216;27.904;2022-07-05T12:42:34;27.24;53.67
67799;SHT30;54596;43.216;27.904;2022-07-05T12:45:13;27.16;54.72
67799;SHT30;54596;43.216;27.904;2022-07-05T12:50:14;27.11;51.68
67799;SHT30;54596;43.216;27.904;2022-07-05T12:55:33;26.93;52.33
67799;SHT30;54596;43.216;27.904;2022-07-05T12:58:17;27.06;53.75
67799;SHT30;54596;43.216;27.904;2022-07-05T13:00:42;27.14;54.36
67799;SHT30;54596;43.216;27.904;2022-07-05T13:03:08;27.09;52.60
67799;SHT30;54596;43.216;27.904;2022-07-05T13:05:33;27.04;51.76
67799;SHT30;54596;43.216;27.904;2022-07-05T13:07:59;26.88;53.46
67799;SHT30;54596;43.216;27.904;2022-07-05T13:10:26;26.85;53.44
67799;SHT30;54596;43.216;27.904;2022-07-05T13:12:57;26.76;53.33
67799;SHT30;54596;43.216;27.904;2022-07-05T13:15:23;26.92;52.85
67799;SHT30;54596;43.216;27.904;2022-07-05T13:17:50;27.00;52.47
67799;SHT30;54596;43.216;27.904;2022-07-05T13:20:19;26.98;53.13
67799;SHT30;54596;43.216;27.904;2022-07-05T13:22:46;26.86;49.42
67799;SHT30;54596;43.216;27.904;2022-07-05T13:25:12;26.79;51.77
67799;SHT30;54596;43.216;27.904;2022-07-05T13:27:39;26.68;51.69
67799;SHT30;54596;43.216;27.904;2022-07-05T13:30:05;26.81;50.36
67799;SHT30;54596;43.216;27.904;2022-07-05T13:32:30;26.81;51.91
67799;SHT30;54596;43.216;27.904;2022-07-05T13:34:57;26.88;52.38
67799;SHT30;54596;43.216;27.904;2022-07-05T13:37:22;26.92;52.56
67799;SHT30;54596;43.216;27.904;2022-07-05T13:39:48;26.81;52.96
67799;SHT30;54596;43.216;27.904;2022-07-05T13:42:13;26.81;51.74
67799;SHT30;54596;43.216;27.904;2022-07-05T13:44:39;26.74;53.18
67799;SHT30;54596;43.216;27.904;2022-07-05T13:47:04;26.71;50.48
67799;SHT30;54596;43.216;27.904;2022-07-05T13:49:30;26.68;50.62
67799;SHT30;54596;43.216;27.904;2022-07-05T13:51:56;26.71;50.56
67799;SHT30;54596;43.216;27.904;2022-07-05T13:54:23;26.74;51.17
67799;SHT30;54596;43.216;27.904;2022-07-05T13:56:49;26.82;51.37
67799;SHT30;54596;43.216;27.904;2022-07-05T13:59:14;26.81;53.25
67799;SHT30;54596;43.216;27.904;2022-07-05T14:01:40;26.81;53.09
67799;SHT30;54596;43.216;27.904;2022-07-05T14:04:06;26.82;52.08
67799;SHT30;54596;43.216;27.904;2022-07-05T14:06:33;26.78;52.73
67799;SHT30;54596;43.216;27.904;2022-07-05T14:09:00;26.83;52.62
67799;SHT30;54596;43.216;27.904;2022-07-05T14:11:25;26.89;51.71
67799;SHT30;54596;43.216;27.904;2022-07-05T14:13:55;26.83;50.05
67799;SHT30;54596;43.216;27.904;2022-07-05T14:16:21;26.81;50.62
67799;SHT30;54596;43.216;27.904;2022-07-05T14:18:46;26.72;51.19
67799;SHT30;54596;43.216;27.904;2022-07-05T14:21:12;26.65;52.33
67799;SHT30;54596;43.216;27.904;2022-07-05T14:23:41;26.69;51.70
67799;SHT30;54596;43.216;27.904;2022-07-05T14:26:07;26.74;52.31
67799;SHT30;54596;43.216;27.904;2022-07-05T14:28:34;26.74;51.09
67799;SHT30;54596;43.216;27.904;2022-07-05T14:30:59;26.76;50.49
67799;SHT30;54596;43.216;27.904;2022-07-05T14:33:25;26.67;52.40
67799;SHT30;54596;43.216;27.904;2022-07-05T14:35:50;26.65;53.14
67799;SHT30;54596;43.216;27.904;2022-07-05T14:38:16;26.68;53.05
67799;SHT30;54596;43.216;27.904;2022-07-05T14:40:41;26.68;53.13
67799;SHT30;54596;43.216;27.904;2022-07-05T14:43:07;26.69;51.72
67799;SHT30;54596;43.216;27.904;2022-07-05T14:45:32;26.68;49.66
67799;SHT30;54596;43.216;27.904;2022-07-05T14:47:58;26.69;50.74
67799;SHT30;54596;43.216;27.904;2022-07-05T14:50:24;26.68;52.38
67799;SHT30;54596;43.216;27.904;2022-07-05T14:52:49;26.67;50.82
67799;SHT30;54596;43.216;27.904;2022-07-05T14:55:15;26.69;52.35
67799;SHT30;54596;43.216;27.904;2022-07-05T14:57:41;26.64;50.99
67799;SHT30;54596;43.216;27.904;2022-07-05T15:00:09;26.58;50.83
67799;SHT30;54596;43.216;27.904;2022-07-05T15:02:36;26.52;51.06
67799;SHT30;54596;43.216;27.904;2022-07-05T15:05:03;26.54;49.85
67799;SHT30;54596;43.216;27.904;2022-07-05T15:07:29;26.51;51.46
67799;SHT30;54596;43.216;27.904;2022-07-05T15:09:55;26.58;51.66
67799;SHT30;54596;43.216;27.904;2022-07-05T15:12:21;26.58;49.01
67799;SHT30;54596;43.216;27.904;2022-07-05T15:14:46;26.49;51.12
67799;SHT30;54596;43.216;27.904;2022-07-05T15:17:12;26.45;52.36
67799;SHT30;54596;43.216;27.904;2022-07-05T15:19:38;26.41;48.89
67799;SHT30;54596;43.216;27.904;2022-07-05T15:22:05;26.45;49.41
67799;SHT30;54596;43.216;27.904;2022-07-05T15:24:31;26.43;50.15
67799;SHT30;54596;43.216;27.904;2022-07-05T15:26:57;26.44;50.81
67799;SHT30;54596;43.216;27.904;2022-07-05T15:29:23;26.44;48.46
67799;SHT30;54596;43.216;27.904;2022-07-05T15:31:50;26.41;50.41
67799;SHT30;54596;43.216;27.904;2022-07-05T15:34:16;26.41;50.68
67799;SHT30;54596;43.216;27.904;2022-07-05T15:36:41;26.37;48.89
67799;SHT30;54596;43.216;27.904;2022-07-05T15:39:07;26.37;48.41
67799;SHT30;54596;43.216;27.904;2022-07-05T15:41:33;26.41;45.64
67799;SHT30;54596;43.216;27.904;2022-07-05T15:43:59;26.38;47.77
67799;SHT30;54596;43.216;27.904;2022-07-05T15:46:25;26.40;49.42
67799;SHT30;54596;43.216;27.904;2022-07-05T15:48:51;26.41;50.73